Time;durP1;ratioP1;P1;durP2;ratioP2;P2;SDS_P1;SDS_P2;PMS_P1;PMS_P2;Temp;Humidity;BMP_temperature;BMP_pressure;BME280_temperature;BME280_humidity;BME280_pressure;Samples;Min_cycle;Max_cycle;Signal;HPM_P1;HPM_P2
2021/12/09 00:01:02;;;;;;;28.42;19.00;;;0.50;99.90;;;;;;5066615;28;20396;-72
2021/12/09 00:03:35;;;;;;;30.05;20.38;;;0.50;99.90;;;;;;5065771;28;20493;-71
2021/12/09 00:06:03;;;;;;;33.05;20.95;;;0.50;99.90;;;;;;5059579;28;20060;-71
2021/12/09 00:08:29;;;;;;;26.30;17.80;;;0.50;99.90;;;;;;5068484;28;20378;-71
2021/12/09 00:10:57;;;;;;;32.08;18.67;;;0.40;99.90;;;;;;5068445;28;20094;-71
2021/12/09 00:13:24;;;;;;;24.63;16.98;;;0.40;99.90;;;;;;5069620;28;20045;-71
2021/12/09 00:15:50;;;;;;;30.83;17.77;;;0.30;99.90;;;;;;5060284;28;20044;-72
2021/12/09 00:18:16;;;;;;;27.75;19.50;;;0.20;99.90;;;;;;5067345;28;20177;-71
2021/12/09 00:20:42;;;;;;;31.83;19.50;;;0.20;99.90;;;;;;5069442;28;20036;-71
2021/12/09 00:23:08;;;;;;;39.10;23.60;;;0.20;99.90;;;;;;5070831;28;20049;-71
2021/12/09 00:25:35;;;;;;;36.30;21.98;;;0.20;99.90;;;;;;5068602;28;20562;-71
2021/12/09 00:28:01;;;;;;;31.23;21.92;;;0.20;99.90;;;;;;5066548;28;20119;-71
2021/12/09 00:30:29;;;;;;;36.00;24.80;;;0.20;99.90;;;;;;5083480;28;20044;-72
2021/12/09 00:32:55;;;;;;;35.27;21.77;;;0.20;99.90;;;;;;5065002;28;20706;-72
2021/12/09 00:35:27;;;;;;;34.80;20.77;;;0.20;99.90;;;;;;5069324;28;20283;-71
2021/12/09 00:38:06;;;;;;;31.02;21.33;;;0.20;99.90;;;;;;5070497;28;20053;-72
2021/12/09 00:40:32;;;;;;;41.45;22.00;;;0.10;99.90;;;;;;5079325;28;20047;-72
2021/12/09 00:42:58;;;;;;;35.45;22.13;;;0.10;99.90;;;;;;5089582;28;20052;-72
2021/12/09 00:45:25;;;;;;;37.47;20.73;;;0.10;99.90;;;;;;5090143;28;20048;-72
2021/12/09 00:47:51;;;;;;;32.13;20.38;;;0.10;99.90;;;;;;5063044;28;20056;-72
2021/12/09 00:50:18;;;;;;;34.00;23.42;;;0.10;99.90;;;;;;5061209;28;20048;-72
2021/12/09 00:52:44;;;;;;;34.25;23.38;;;0.10;99.90;;;;;;5058640;28;20475;-72
2021/12/09 00:55:10;;;;;;;35.30;24.17;;;0.10;99.90;;;;;;5061557;28;20049;-71
2021/12/09 00:57:37;;;;;;;39.00;23.40;;;0.10;99.90;;;;;;5067529;28;20078;-72
2021/12/09 01:00:18;;;;;;;33.53;22.95;;;0.10;99.90;;;;;;5070535;28;20082;-72
2021/12/09 01:02:44;;;;;;;44.97;24.55;;;0.10;99.90;;;;;;5055281;28;20040;-71
2021/12/09 01:05:11;;;;;;;31.95;22.55;;;0.10;99.90;;;;;;5087653;28;20047;-71
2021/12/09 01:07:38;;;;;;;39.17;22.48;;;0.10;99.90;;;;;;5066797;28;20053;-72
2021/12/09 01:10:07;;;;;;;38.13;25.35;;;0.00;99.90;;;;;;5069969;28;20539;-72
2021/12/09 01:12:33;;;;;;;28.30;22.15;;;0.00;99.90;;;;;;5070873;28;20044;-71
2021/12/09 01:14:59;;;;;;;42.20;25.38;;;0.00;99.90;;;;;;5071666;28;20504;-72
2021/12/09 01:17:25;;;;;;;39.60;27.25;;;0.00;99.90;;;;;;5056021;28;20128;-71
2021/12/09 01:19:52;;;;;;;48.65;28.60;;;0.00;99.90;;;;;;5071368;28;20135;-71
2021/12/09 01:22:19;;;;;;;39.20;26.40;;;0.10;99.90;;;;;;5069567;28;20055;-71
2021/12/09 01:24:45;;;;;;;40.30;25.73;;;0.10;99.90;;;;;;5070646;28;20519;-71
2021/12/09 01:27:12;;;;;;;41.15;26.00;;;0.20;99.90;;;;;;5071831;28;20048;-71
2021/12/09 01:29:39;;;;;;;35.53;25.83;;;0.20;99.90;;;;;;5070805;28;20052;-71
2021/12/09 01:32:08;;;;;;;45.20;25.90;;;0.20;99.90;;;;;;5068935;28;20067;-71
2021/12/09 01:34:35;;;;;;;41.28;27.25;;;0.30;99.90;;;;;;5077643;28;20141;-71
2021/12/09 01:37:01;;;;;;;39.85;27.08;;;0.30;99.90;;;;;;5067197;28;20493;-71
2021/12/09 01:39:28;;;;;;;34.45;24.30;;;0.20;99.90;;;;;;5065978;28;20047;-71
2021/12/09 01:41:55;;;;;;;37.60;27.33;;;0.20;99.90;;;;;;5077961;28;20413;-71
2021/12/09 01:44:22;;;;;;;41.60;25.50;;;0.20;99.90;;;;;;5069560;28;20049;-71
2021/12/09 01:46:48;;;;;;;35.22;27.17;;;0.20;99.90;;;;;;5067403;28;20414;-71
2021/12/09 01:49:13;;;;;;;41.65;26.45;;;0.20;99.90;;;;;;5069117;28;20066;-71
2021/12/09 01:51:41;;;;;;;41.15;25.58;;;0.20;99.90;;;;;;5088616;28;20062;-71
2021/12/09 01:54:07;;;;;;;33.83;23.88;;;0.10;99.90;;;;;;5071177;28;20398;-71
2021/12/09 01:56:34;;;;;;;36.72;26.38;;;0.10;99.90;;;;;;5072047;28;20105;-71
2021/12/09 01:59:05;;;;;;;40.65;26.08;;;0.00;99.90;;;;;;5068887;28;20052;-71
2021/12/09 02:01:32;;;;;;;40.92;26.83;;;0.00;99.90;;;;;;5078584;28;20048;-71
2021/12/09 02:03:59;;;;;;;36.40;26.30;;;0.00;99.90;;;;;;5059783;28;20059;-71
2021/12/09 02:06:26;;;;;;;46.70;30.50;;;0.10;99.90;;;;;;5071792;28;20048;-71
2021/12/09 02:08:53;;;;;;;39.35;26.67;;;0.10;99.90;;;;;;5070303;28;20059;-71
2021/12/09 02:11:18;;;;;;;48.75;29.38;;;0.00;99.90;;;;;;5079816;28;20580;-71
2021/12/09 02:13:45;;;;;;;39.70;28.38;;;0.00;99.90;;;;;;5059082;28;20127;-71
2021/12/09 02:16:11;;;;;;;35.60;26.88;;;0.00;99.90;;;;;;5070315;28;20083;-71
2021/12/09 02:18:37;;;;;;;36.95;26.58;;;-0.10;99.90;;;;;;5069648;28;20075;-71
2021/12/09 02:21:14;;;;;;;38.20;27.15;;;-0.10;99.90;;;;;;5069874;28;20495;-71
2021/12/09 02:23:47;;;;;;;40.28;26.33;;;0.00;99.90;;;;;;5055247;28;20044;-71
2021/12/09 02:26:14;;;;;;;44.92;28.10;;;-0.10;99.90;;;;;;5062520;28;20105;-71
2021/12/09 02:28:41;;;;;;;43.28;28.27;;;-0.10;99.90;;;;;;5053649;28;20148;-71
2021/12/09 02:31:07;;;;;;;44.88;28.30;;;-0.10;99.90;;;;;;5049951;28;20044;-71
2021/12/09 02:33:33;;;;;;;51.30;30.27;;;-0.10;99.90;;;;;;5065573;28;20119;-71
2021/12/09 02:35:59;;;;;;;39.13;28.23;;;-0.10;99.90;;;;;;5075614;28;20119;-71
2021/12/09 02:38:25;;;;;;;40.15;28.52;;;-0.10;99.90;;;;;;5075633;28;20036;-71
2021/12/09 02:40:51;;;;;;;52.13;28.95;;;-0.10;99.90;;;;;;5088482;28;20557;-71
2021/12/09 02:43:27;;;;;;;45.60;27.05;;;-0.20;99.90;;;;;;5065672;28;20044;-71
2021/12/09 02:45:53;;;;;;;52.78;30.38;;;-0.10;99.90;;;;;;5065642;28;20850;-71
2021/12/09 02:48:20;;;;;;;36.63;28.33;;;-0.20;99.90;;;;;;5082124;28;20417;-71
2021/12/09 02:50:47;;;;;;;47.50;30.33;;;-0.10;99.90;;;;;;5067395;28;20087;-71
2021/12/09 02:53:13;;;;;;;44.90;30.27;;;-0.10;99.90;;;;;;5037066;28;20106;-71
2021/12/09 02:55:39;;;;;;;45.15;30.88;;;-0.10;99.90;;;;;;5060065;28;20511;-71
2021/12/09 02:58:05;;;;;;;42.22;28.48;;;0.00;99.90;;;;;;5064312;28;20040;-71
2021/12/09 03:00:31;;;;;;;42.42;26.55;;;-0.10;99.90;;;;;;5086952;28;20035;-71
2021/12/09 03:02:58;;;;;;;41.08;28.83;;;-0.10;99.90;;;;;;5071027;28;20040;-71
2021/12/09 03:05:26;;;;;;;42.90;27.97;;;-0.10;99.90;;;;;;5066642;28;20041;-71
2021/12/09 03:07:52;;;;;;;39.95;29.80;;;-0.10;99.90;;;;;;5067233;28;20047;-71
2021/12/09 03:10:24;;;;;;;54.53;32.22;;;-0.10;99.90;;;;;;5063513;28;20044;-71
2021/12/09 03:12:56;;;;;;;47.25;31.40;;;0.00;99.90;;;;;;5079628;28;20052;-71
2021/12/09 03:15:22;;;;;;;42.25;28.58;;;0.00;99.90;;;;;;5067856;28;20048;-70
2021/12/09 03:17:49;;;;;;;46.60;28.95;;;-0.10;99.90;;;;;;5057144;28;20095;-71
2021/12/09 03:20:17;;;;;;;45.63;28.83;;;-0.10;99.90;;;;;;5081101;28;20074;-71
2021/12/09 03:22:44;;;;;;;45.13;30.90;;;-0.20;99.90;;;;;;5069302;28;20076;-71
2021/12/09 03:25:12;;;;;;;42.70;30.10;;;-0.20;99.90;;;;;;5069908;28;20076;-71
2021/12/09 03:27:38;;;;;;;49.67;30.38;;;-0.20;99.90;;;;;;5087749;28;20082;-71
2021/12/09 03:30:06;;;;;;;52.17;32.17;;;-0.20;99.90;;;;;;5059902;28;20434;-71
2021/12/09 03:32:32;;;;;;;39.85;30.55;;;-0.20;99.90;;;;;;5061352;28;20163;-71
2021/12/09 03:34:58;;;;;;;43.42;29.67;;;-0.20;99.90;;;;;;5062743;28;20524;-71
2021/12/09 03:37:27;;;;;;;45.45;31.83;;;-0.20;99.90;;;;;;5065497;28;20048;-71
2021/12/09 03:39:54;;;;;;;52.38;34.28;;;-0.20;99.90;;;;;;5066835;28;20416;-71
2021/12/09 03:42:26;;;;;;;44.58;30.88;;;-0.20;99.90;;;;;;5065918;28;20055;-71
2021/12/09 03:44:52;;;;;;;51.33;31.70;;;-0.20;99.90;;;;;;5069713;28;21213;-71
2021/12/09 03:47:21;;;;;;;43.65;31.23;;;-0.30;99.90;;;;;;5060713;28;20059;-71
2021/12/09 03:49:47;;;;;;;;;;;-0.30;99.90;;;;;;5071008;28;20062;-71
2021/12/09 03:52:13;;;;;;;37.33;27.63;;;-0.40;99.90;;;;;;5066612;28;19924;-71
2021/12/09 03:54:41;;;;;;;49.25;33.92;;;-0.40;99.90;;;;;;5086508;28;20044;-71
2021/12/09 03:57:08;;;;;;;43.28;30.80;;;-0.40;99.90;;;;;;5083473;28;20041;-71
2021/12/09 03:59:34;;;;;;;48.38;31.42;;;-0.40;99.90;;;;;;5055818;28;20052;-70
2021/12/09 04:02:00;;;;;;;54.65;33.40;;;-0.40;99.90;;;;;;5061804;28;20075;-71
2021/12/09 04:04:26;;;;;;;57.63;37.55;;;-0.40;99.90;;;;;;5069694;28;20070;-70
2021/12/09 04:06:52;;;;;;;51.40;36.42;;;-0.40;99.90;;;;;;5070131;28;20489;-70
2021/12/09 04:09:19;;;;;;;55.33;33.85;;;-0.40;99.90;;;;;;5072951;28;20043;-71
2021/12/09 04:11:46;;;;;;;57.63;35.67;;;-0.50;99.90;;;;;;5072218;28;20044;-71
2021/12/09 04:14:11;;;;;;;54.72;36.40;;;-0.50;99.90;;;;;;5072371;28;20396;-70
2021/12/09 04:16:38;;;;;;;50.92;33.40;;;-0.50;99.90;;;;;;5071711;28;20049;-70
2021/12/09 04:19:06;;;;;;;47.30;32.65;;;-0.50;99.90;;;;;;5073640;28;20051;-71
2021/12/09 04:21:33;;;;;;;43.67;32.15;;;-0.60;99.90;;;;;;5072814;28;20071;-71
2021/12/09 04:23:59;;;;;;;61.22;37.97;;;-0.60;99.90;;;;;;5074510;28;20044;-71
2021/12/09 04:26:24;;;;;;;61.30;39.38;;;-0.60;99.90;;;;;;5064459;28;20068;-71
2021/12/09 04:28:50;;;;;;;51.38;34.72;;;-0.60;99.90;;;;;;5068518;28;20113;-71
2021/12/09 04:31:17;;;;;;;54.65;37.72;;;-0.60;99.90;;;;;;5066132;28;20520;-71
2021/12/09 04:33:43;;;;;;;50.65;34.70;;;-0.70;99.90;;;;;;5064321;28;20497;-71
2021/12/09 04:36:10;;;;;;;57.58;36.60;;;-0.60;99.90;;;;;;5071779;28;20055;-71
2021/12/09 04:38:36;;;;;;;54.47;36.05;;;-0.70;99.90;;;;;;5071643;28;20044;-71
2021/12/09 04:41:02;;;;;;;46.45;34.03;;;-0.60;99.90;;;;;;5070520;28;20036;-71
2021/12/09 04:43:28;;;;;;;53.08;35.70;;;-0.60;99.90;;;;;;5086388;28;20063;-71
2021/12/09 04:45:53;;;;;;;57.03;36.33;;;-0.60;99.90;;;;;;5072645;28;20044;-71
2021/12/09 04:48:19;;;;;;;55.38;37.50;;;-0.60;99.90;;;;;;5071692;28;20048;-71
2021/12/09 04:50:46;;;;;;;49.40;37.97;;;-0.60;99.90;;;;;;5090329;28;20479;-71
2021/12/09 04:53:12;;;;;;;56.70;37.92;;;-0.50;99.90;;;;;;5073258;28;20051;-71
2021/12/09 04:55:38;;;;;;;63.22;38.97;;;-0.50;99.90;;;;;;5068245;28;20044;-71
2021/12/09 04:58:07;;;;;;;62.72;41.92;;;-0.40;99.90;;;;;;5068635;28;20040;-71
2021/12/09 05:00:37;;;;;;;62.83;41.40;;;-0.40;99.90;;;;;;5059152;28;20115;-71
2021/12/09 05:03:07;;;;;;;61.38;38.40;;;-0.40;99.90;;;;;;5090716;28;20089;-71
2021/12/09 05:05:39;;;;;;;55.63;38.65;;;-0.40;99.90;;;;;;5071192;28;20501;-71
2021/12/09 05:08:08;;;;;;;60.90;40.08;;;-0.40;99.90;;;;;;5069333;28;20044;-71
2021/12/09 05:10:49;;;;;;;64.53;40.42;;;-0.30;99.90;;;;;;5062365;28;20047;-71
2021/12/09 05:13:15;;;;;;;59.00;39.83;;;-0.30;99.90;;;;;;5055143;28;20036;-71
2021/12/09 05:15:41;;;;;;;70.20;43.65;;;-0.30;99.90;;;;;;5072635;28;20378;-71
2021/12/09 05:18:08;;;;;;;64.57;40.95;;;-0.30;99.90;;;;;;5070424;28;20448;-71
2021/12/09 05:20:33;;;;;;;67.55;40.67;;;-0.30;99.90;;;;;;5070777;28;20096;-71
2021/12/09 05:22:59;;;;;;;60.50;37.28;;;-0.30;99.90;;;;;;5070133;28;20820;-71
2021/12/09 05:25:25;;;;;;;54.20;37.17;;;-0.40;99.90;;;;;;5068097;28;20098;-71
2021/12/09 05:27:51;;;;;;;55.25;38.20;;;-0.40;99.90;;;;;;5066089;28;20109;-71
2021/12/09 05:30:23;;;;;;;67.57;41.67;;;-0.40;99.90;;;;;;5068856;28;20060;-71
2021/12/09 05:32:49;;;;;;;63.05;37.45;;;-0.40;99.90;;;;;;5056200;28;20424;-71
2021/12/09 05:35:16;;;;;;;59.40;38.95;;;-0.40;99.90;;;;;;5065913;28;20089;-71
2021/12/09 05:37:42;;;;;;;55.53;36.35;;;-0.40;99.90;;;;;;5066703;28;20131;-71
2021/12/09 05:40:09;;;;;;;64.93;39.45;;;-0.40;99.90;;;;;;5070879;28;20044;-71
2021/12/09 05:42:34;;;;;;;49.45;35.13;;;-0.50;99.90;;;;;;5055134;28;20052;-71
2021/12/09 05:45:00;;;;;;;61.55;39.63;;;-0.50;99.90;;;;;;5071939;28;20052;-72
2021/12/09 05:47:26;;;;;;;55.70;36.33;;;-0.60;99.90;;;;;;5086942;28;20102;-72
2021/12/09 05:49:53;;;;;;;60.58;34.88;;;-0.60;99.90;;;;;;5087665;28;20170;-72
2021/12/09 05:52:19;;;;;;;53.25;33.85;;;-0.60;99.90;;;;;;5066373;28;20508;-71
2021/12/09 05:54:45;;;;;;;57.17;38.70;;;-0.70;99.90;;;;;;5068826;28;20087;-72
2021/12/09 05:57:11;;;;;;;56.35;37.17;;;-0.70;99.90;;;;;;5083385;28;20036;-72
2021/12/09 05:59:40;;;;;;;62.70;39.20;;;-0.80;99.90;;;;;;5086877;28;20167;-72
2021/12/09 06:02:11;;;;;;;63.75;39.33;;;-0.80;99.90;;;;;;5070392;28;20056;-72
2021/12/09 06:04:37;;;;;;;62.20;38.15;;;-0.80;99.90;;;;;;5065631;28;20044;-72
2021/12/09 06:07:03;;;;;;;60.92;40.00;;;-0.80;99.90;;;;;;5086523;28;20125;-72
2021/12/09 06:09:29;;;;;;;62.85;37.30;;;-0.80;99.90;;;;;;5065867;28;20106;-72
2021/12/09 06:11:55;;;;;;;60.63;38.47;;;-0.90;99.90;;;;;;5056217;28;20481;-72
2021/12/09 06:14:20;;;;;;;54.80;35.50;;;-0.80;99.90;;;;;;5070044;28;20082;-72
2021/12/09 06:16:46;;;;;;;51.67;35.25;;;-0.90;99.90;;;;;;5068259;28;20044;-72
2021/12/09 06:19:12;;;;;;;66.88;43.08;;;-0.90;99.90;;;;;;5066901;28;20960;-72
2021/12/09 06:21:38;;;;;;;64.38;41.03;;;-0.90;99.90;;;;;;5061688;28;20422;-72
2021/12/09 06:24:04;;;;;;;60.03;39.05;;;-0.90;99.90;;;;;;5069972;28;20044;-72
2021/12/09 06:26:32;;;;;;;64.00;40.97;;;-0.80;99.90;;;;;;5077872;28;20055;-72
2021/12/09 06:28:58;;;;;;;64.13;42.10;;;-0.90;99.90;;;;;;5063305;28;20059;-72
2021/12/09 06:31:24;;;;;;;58.45;41.03;;;-0.90;99.90;;;;;;5060737;28;20071;-72
2021/12/09 06:33:50;;;;;;;67.43;42.50;;;-0.90;99.90;;;;;;5064124;28;20839;-71
2021/12/09 06:36:16;;;;;;;63.35;38.40;;;-0.90;99.90;;;;;;5059856;28;20532;-72
2021/12/09 06:38:42;;;;;;;51.53;36.45;;;-0.90;99.90;;;;;;5068432;28;20066;-72
2021/12/09 06:41:08;;;;;;;55.90;36.10;;;-0.90;99.90;;;;;;5086195;28;20390;-72
2021/12/09 06:43:40;;;;;;;67.35;35.83;;;-1.00;99.90;;;;;;5071938;28;20793;-72
2021/12/09 06:46:08;;;;;;;54.22;37.45;;;-1.00;99.90;;;;;;5067435;28;20059;-72
2021/12/09 06:48:35;;;;;;;59.00;40.78;;;-1.10;99.90;;;;;;5089607;28;20134;-72
2021/12/09 06:51:05;;;;;;;64.97;39.70;;;-1.10;99.90;;;;;;5065724;28;20078;-72
2021/12/09 06:53:31;;;;;;;64.13;41.28;;;-1.10;99.90;;;;;;5063373;28;20119;-72
2021/12/09 06:55:57;;;;;;;73.35;44.22;;;-1.10;99.90;;;;;;5067948;28;20040;-72
2021/12/09 06:58:24;;;;;;;63.30;40.88;;;-1.00;99.90;;;;;;5062291;28;20074;-72
2021/12/09 07:00:50;;;;;;;60.15;42.65;;;-1.00;99.90;;;;;;5070591;28;20040;-72
2021/12/09 07:03:16;;;;;;;67.47;42.58;;;-1.10;99.90;;;;;;5066010;28;20507;-71
2021/12/09 07:05:44;;;;;;;72.82;46.00;;;-1.10;99.90;;;;;;5067244;28;20055;-72
2021/12/09 07:08:10;;;;;;;76.95;41.80;;;-1.10;99.90;;;;;;5070932;28;20094;-72
2021/12/09 07:10:36;;;;;;;72.35;41.80;;;-1.00;99.90;;;;;;5087924;28;20083;-72
2021/12/09 07:13:03;;;;;;;66.28;43.42;;;-1.00;99.90;;;;;;5070567;28;20044;-72
2021/12/09 07:15:29;;;;;;;60.88;42.63;;;-1.00;99.90;;;;;;5065261;28;20566;-72
2021/12/09 07:17:54;;;;;;;73.57;46.45;;;-1.00;99.90;;;;;;5085555;28;20040;-72
2021/12/09 07:20:23;;;;;;;75.85;44.05;;;-1.00;99.90;;;;;;5066470;28;20442;-72
2021/12/09 07:22:50;;;;;;;67.15;44.88;;;-1.00;99.90;;;;;;5069792;28;20083;-72
2021/12/09 07:25:18;;;;;;;73.90;46.67;;;-0.90;99.90;;;;;;5065893;28;20057;-71
2021/12/09 07:27:44;;;;;;;74.80;44.97;;;-0.90;99.90;;;;;;5056282;28;20052;-71
2021/12/09 07:30:12;;;;;;;68.40;43.08;;;-0.90;99.90;;;;;;5058042;28;20135;-71
2021/12/09 07:32:38;;;;;;;67.55;43.90;;;-0.80;99.90;;;;;;5065751;28;20049;-71
2021/12/09 07:35:06;;;;;;;93.47;47.47;;;-0.80;99.90;;;;;;5061228;28;20040;-72
2021/12/09 07:37:33;;;;;;;75.85;46.95;;;-0.80;99.90;;;;;;5062679;28;20192;-71
2021/12/09 07:39:59;;;;;;;77.22;44.42;;;-0.80;99.90;;;;;;5062328;28;20041;-72
2021/12/09 07:42:25;;;;;;;74.20;46.47;;;-0.80;99.90;;;;;;5062524;28;20109;-71
2021/12/09 07:44:51;;;;;;;71.03;46.00;;;-0.80;99.90;;;;;;5070371;28;20493;-72
2021/12/09 07:47:17;;;;;;;68.82;44.08;;;-0.80;99.90;;;;;;5064025;28;20052;-73
2021/12/09 07:49:44;;;;;;;74.95;47.17;;;-0.80;99.90;;;;;;5066419;28;20045;-71
2021/12/09 07:52:11;;;;;;;74.40;46.40;;;-0.80;99.90;;;;;;5068247;28;20489;-71
2021/12/09 07:54:36;;;;;;;69.35;45.05;;;-0.80;99.90;;;;;;5062168;28;20124;-71
2021/12/09 07:57:03;;;;;;;74.88;50.08;;;-0.80;99.90;;;;;;5082211;28;20147;-72
2021/12/09 07:59:28;;;;;;;82.00;47.67;;;-0.70;99.90;;;;;;5069027;28;20073;-71
2021/12/09 08:01:55;;;;;;;74.47;44.70;;;-0.70;99.90;;;;;;5065189;28;20604;-72
2021/12/09 08:04:20;;;;;;;71.57;44.72;;;-0.70;99.90;;;;;;5078158;28;20949;-72
2021/12/09 08:06:46;;;;;;;70.38;42.63;;;-0.70;99.90;;;;;;5070002;28;20036;-72
2021/12/09 08:09:12;;;;;;;67.38;43.65;;;-0.70;99.90;;;;;;5071307;28;20055;-71
2021/12/09 08:11:38;;;;;;;69.50;42.20;;;-0.70;99.90;;;;;;5069210;28;20036;-72
2021/12/09 08:14:06;;;;;;;72.15;44.70;;;-0.70;99.90;;;;;;5059527;28;20049;-72
2021/12/09 08:16:37;;;;;;;67.90;38.63;;;-0.70;99.90;;;;;;5064849;28;20444;-72
2021/12/09 08:19:07;;;;;;;62.45;37.78;;;-0.80;99.90;;;;;;5069193;28;20056;-72
2021/12/09 08:21:35;;;;;;;55.60;38.00;;;-0.70;99.90;;;;;;5060801;28;20045;-72
2021/12/09 08:24:02;;;;;;;70.65;43.95;;;-0.50;99.90;;;;;;5066660;28;20048;-72
2021/12/09 08:26:28;;;;;;;75.30;46.30;;;-0.40;99.90;;;;;;5066597;28;20820;-72
2021/12/09 08:28:54;;;;;;;67.30;45.50;;;-0.30;99.90;;;;;;5065908;28;20568;-72
2021/12/09 08:31:20;;;;;;;74.15;44.75;;;-0.30;99.90;;;;;;5066669;28;20045;-72
2021/12/09 08:33:47;;;;;;;69.22;40.65;;;-0.40;99.90;;;;;;5067677;28;20056;-71
2021/12/09 08:36:12;;;;;;;75.65;44.95;;;-0.40;99.90;;;;;;5067905;28;20052;-71
2021/12/09 08:38:38;;;;;;;71.07;44.17;;;-0.40;99.90;;;;;;5078265;28;20040;-71
2021/12/09 08:41:05;;;;;;;68.68;42.97;;;-0.40;99.90;;;;;;5069940;28;20040;-71
2021/12/09 08:43:30;;;;;;;56.63;38.75;;;-0.30;99.90;;;;;;5064100;28;20507;-71
2021/12/09 08:45:56;;;;;;;61.63;38.25;;;-0.40;99.90;;;;;;5059102;28;20041;-72
2021/12/09 08:48:24;;;;;;;55.45;38.35;;;-0.40;99.90;;;;;;5066923;28;20063;-71
2021/12/09 08:50:50;;;;;;;49.75;37.70;;;-0.40;99.90;;;;;;5059642;28;20080;-71
2021/12/09 08:53:19;;;;;;;58.45;39.47;;;-0.40;99.90;;;;;;5059455;28;20049;-71
2021/12/09 08:55:45;;;;;;;53.47;35.28;;;-0.30;99.90;;;;;;5063564;28;20056;-71
2021/12/09 08:58:12;;;;;;;51.90;36.35;;;-0.30;99.90;;;;;;5067343;28;20041;-71
2021/12/09 09:00:39;;;;;;;55.47;34.70;;;-0.20;99.90;;;;;;5076187;28;20050;-71
2021/12/09 09:03:05;;;;;;;58.42;35.10;;;-0.10;99.90;;;;;;5071891;28;20387;-71
2021/12/09 09:05:35;;;;;;;59.60;34.20;;;0.00;99.90;;;;;;5058319;28;20136;-71
2021/12/09 09:08:02;;;;;;;51.83;35.30;;;0.10;99.90;;;;;;5061126;28;20090;-71
2021/12/09 09:10:31;;;;;;;55.75;35.33;;;0.30;99.90;;;;;;5068201;28;20052;-71
2021/12/09 09:12:57;;;;;;;60.55;35.13;;;0.40;99.90;;;;;;5067578;28;20443;-71
2021/12/09 09:15:24;;;;;;;54.38;32.60;;;0.40;99.90;;;;;;5066191;28;20053;-71
2021/12/09 09:17:51;;;;;;;60.50;32.05;;;0.60;99.90;;;;;;5083035;28;20053;-71
2021/12/09 09:20:21;;;;;;;54.33;32.22;;;0.60;99.90;;;;;;5070247;28;20119;-72
2021/12/09 09:22:47;;;;;;;56.35;32.63;;;0.70;99.90;;;;;;5062846;28;20095;-71
2021/12/09 09:25:17;;;;;;;54.00;32.05;;;0.70;99.90;;;;;;5067851;28;20057;-72
2021/12/09 09:27:44;;;;;;;49.78;31.30;;;0.80;99.90;;;;;;5061162;28;20053;-73
2021/12/09 09:30:17;;;;;;;44.72;31.38;;;0.80;99.90;;;;;;5065418;28;20041;-72
2021/12/09 09:32:44;;;;;;;48.08;31.73;;;0.90;99.90;;;;;;5066716;28;20564;-70
2021/12/09 09:35:10;;;;;;;52.53;30.00;;;1.10;99.90;;;;;;5067803;28;20052;-71
2021/12/09 09:37:36;;;;;;;46.70;30.60;;;1.10;99.90;;;;;;5065023;28;20053;-70
2021/12/09 09:40:07;;;;;;;52.60;31.65;;;1.20;99.90;;;;;;5064477;28;20077;-70
2021/12/09 09:45:09;;;;;;;46.40;28.73;;;1.30;99.90;;;;;;5066988;28;20076;-70
2021/12/09 09:47:35;;;;;;;43.42;29.23;;;1.40;99.90;;;;;;5064847;28;20044;-70
2021/12/09 09:50:05;;;;;;;39.78;28.40;;;1.40;99.90;;;;;;5057663;28;20095;-70
2021/12/09 09:52:31;;;;;;;37.58;26.58;;;1.50;99.90;;;;;;5063568;28;20174;-70
2021/12/09 09:54:59;;;;;;;41.50;28.75;;;1.50;99.90;;;;;;5067689;28;20055;-70
2021/12/09 09:57:25;;;;;;;38.72;27.17;;;1.60;99.90;;;;;;5057823;28;20124;-71
2021/12/09 09:59:51;;;;;;;39.85;25.30;;;1.70;99.90;;;;;;5066738;28;20051;-71
2021/12/09 10:02:17;;;;;;;40.45;27.88;;;1.70;99.90;;;;;;5062725;28;20045;-71
2021/12/09 10:04:47;;;;;;;39.28;25.45;;;1.80;99.90;;;;;;5055908;28;20064;-71
2021/12/09 10:07:18;;;;;;;43.90;25.45;;;1.90;99.90;;;;;;5066181;28;20107;-71
2021/12/09 10:09:44;;;;;;;43.15;24.58;;;2.00;99.90;;;;;;5063653;28;20762;-72
2021/12/09 10:12:12;;;;;;;31.77;24.05;;;2.10;99.90;;;;;;5057926;28;20040;-71
2021/12/09 10:14:38;;;;;;;39.95;22.63;;;2.20;99.90;;;;;;5054591;28;20125;-71
2021/12/09 10:17:15;;;;;;;31.40;21.38;;;2.20;99.90;;;;;;5050788;28;20048;-71
2021/12/09 10:19:46;;;;;;;36.97;23.52;;;2.30;99.90;;;;;;5063025;28;20099;-72
2021/12/09 10:22:18;;;;;;;31.30;21.45;;;2.40;99.90;;;;;;5065688;28;20051;-72
2021/12/09 10:24:46;;;;;;;43.40;22.25;;;2.50;99.90;;;;;;5058517;28;20053;-72
2021/12/09 10:27:23;;;;;;;35.22;21.27;;;2.60;99.90;;;;;;5064226;28;20040;-72
2021/12/09 10:29:50;;;;;;;34.58;21.65;;;2.60;99.90;;;;;;5062128;28;20486;-71
2021/12/09 10:32:25;;;;;;;36.13;20.98;;;2.70;99.90;;;;;;5052661;28;20110;-71
2021/12/09 10:34:51;;;;;;;32.85;21.10;;;2.80;99.90;;;;;;5065683;28;20382;-72
2021/12/09 10:37:21;;;;;;;31.15;21.15;;;2.90;99.90;;;;;;5066103;28;20455;-72
2021/12/09 10:39:57;;;;;;;34.15;20.20;;;2.90;99.90;;;;;;5059424;28;20449;-71
2021/12/09 10:42:27;;;;;;;32.13;19.85;;;3.00;99.90;;;;;;5061836;28;20029;-71
2021/12/09 10:45:00;;;;;;;35.75;18.65;;;3.10;99.90;;;;;;5065488;28;20056;-71
2021/12/09 10:48:37;;;;;;;33.30;18.23;;;3.10;99.90;;;;;;5056288;28;20044;-71
2021/12/09 10:51:25;;;;;;;37.55;19.63;;;3.20;99.90;;;;;;5045410;28;20553;-71
2021/12/09 10:53:47;;;;;;;27.77;20.05;;;3.30;99.90;;;;;;5058976;28;20088;-71
2021/12/09 10:56:22;;;;;;;28.95;19.90;;;3.40;99.90;;;;;;5061520;28;20494;-71
2021/12/09 10:58:49;;;;;;;28.65;20.77;;;3.40;99.90;;;;;;5068733;28;20166;-71
2021/12/09 11:01:18;;;;;;;27.35;19.60;;;3.50;99.90;;;;;;5068269;28;20047;-71
2021/12/09 11:03:46;;;;;;;27.45;19.25;;;3.60;99.90;;;;;;5064723;28;20075;-70
2021/12/09 11:06:23;;;;;;;35.45;19.25;;;3.60;99.90;;;;;;5067104;28;20048;-70
2021/12/09 11:08:55;;;;;;;32.17;20.65;;;3.70;99.90;;;;;;5063926;28;20464;-70
2021/12/09 11:11:32;;;;;;;35.45;21.17;;;3.70;99.90;;;;;;5059249;28;20050;-70
2021/12/09 11:14:13;;;;;;;37.30;20.65;;;3.70;99.90;;;;;;5061986;28;20582;-71
2021/12/09 11:16:42;;;;;;;23.88;19.60;;;3.70;99.90;;;;;;5060026;28;20051;-70
2021/12/09 11:19:12;;;;;;;34.28;21.98;;;3.70;99.90;;;;;;5059177;28;20397;-71
2021/12/09 11:21:45;;;;;;;46.05;23.45;;;3.60;99.90;;;;;;5060593;28;20052;-71
2021/12/09 11:24:17;;;;;;;32.38;20.77;;;3.60;99.90;;;;;;5058469;28;20078;-71
2021/12/09 11:26:57;;;;;;;31.70;22.45;;;3.60;99.90;;;;;;5065597;28;20097;-71
2021/12/09 11:29:51;;;;;;;33.53;22.25;;;3.60;99.90;;;;;;5069854;28;20131;-71
2021/12/09 11:32:48;;;;;;;40.08;23.95;;;3.60;99.90;;;;;;5065307;28;20055;-71
2021/12/09 11:35:24;;;;;;;36.42;22.58;;;3.50;99.90;;;;;;5061329;28;20072;-71
2021/12/09 11:38:06;;;;;;;51.22;25.70;;;3.50;99.90;;;;;;5057968;28;20060;-71
2021/12/09 11:40:56;;;;;;;36.80;25.50;;;3.50;99.90;;;;;;5057602;28;20050;-71
2021/12/09 11:43:25;;;;;;;41.10;27.30;;;3.50;99.90;;;;;;5059678;28;20566;-70
2021/12/09 11:45:52;;;;;;;36.97;24.90;;;3.50;99.90;;;;;;5067452;28;20075;-72
2021/12/09 11:48:18;;;;;;;39.83;25.50;;;3.60;99.90;;;;;;5060164;28;20094;-71
2021/12/09 11:50:50;;;;;;;45.05;25.63;;;3.60;99.90;;;;;;5067935;28;20048;-71
2021/12/09 11:53:18;;;;;;;37.83;25.58;;;3.60;99.90;;;;;;5070499;28;20074;-71
2021/12/09 11:55:52;;;;;;;51.58;25.73;;;3.70;99.90;;;;;;5052867;28;20052;-71
2021/12/09 11:58:26;;;;;;;40.95;25.35;;;3.60;99.90;;;;;;5065771;28;20055;-71
2021/12/09 12:12:49;;;;;;;36.35;24.17;;;3.60;99.90;;;;;;5054061;28;20512;-71
2021/12/09 12:15:45;;;;;;;41.03;24.98;;;3.60;99.90;;;;;;5057281;28;20060;-71
2021/12/09 12:21:36;;;;;;;36.10;24.67;;;3.50;99.90;;;;;;5055238;28;20131;-71
2021/12/09 12:23:58;;;;;;;44.45;25.45;;;3.50;99.90;;;;;;5064124;28;20064;-71
2021/12/09 12:29:31;;;;;;;44.13;25.05;;;3.60;99.90;;;;;;5069937;28;20398;-71
2021/12/09 12:40:17;;;;;;;;;;;3.60;99.90;;;;;;5072913;28;20554;-71
2021/12/09 12:43:00;;;;;;;36.35;24.35;;;3.50;99.90;;;;;;5071115;28;19921;-71
2021/12/09 12:48:33;;;;;;;33.00;23.45;;;3.60;99.90;;;;;;5071070;28;20048;-72
2021/12/09 12:51:19;;;;;;;39.97;25.58;;;3.60;99.90;;;;;;5070617;28;20086;-72
2021/12/09 12:53:48;;;;;;;41.17;26.65;;;3.70;99.90;;;;;;5064630;28;20048;-72
2021/12/09 12:56:17;;;;;;;42.70;27.23;;;3.60;99.90;;;;;;5069973;28;20051;-72
2021/12/09 12:59:11;;;;;;;56.92;28.30;;;3.60;99.90;;;;;;5062095;28;20044;-72
2021/12/09 13:01:44;;;;;;;45.67;25.23;;;3.60;99.90;;;;;;5066398;28;20048;-72
2021/12/09 13:10:25;;;;;;;37.85;26.27;;;3.60;99.90;;;;;;5070236;28;20518;-72
2021/12/09 13:13:29;;;;;;;35.13;23.77;;;3.60;99.90;;;;;;5035389;28;20166;-72
2021/12/09 13:16:06;;;;;;;47.67;26.30;;;3.70;99.90;;;;;;5067884;28;20493;-72
2021/12/09 13:18:43;;;;;;;45.17;25.88;;;3.70;99.90;;;;;;5066879;28;20040;-72